sensor_id;sensor_type;location;lat;lon;timestamp;temperature;humidity
66373;SHT30;53168;51.146;17.120;2024-02-21T00:01:28;6.90;79.81
66373;SHT30;53168;51.146;17.120;2024-02-21T00:04:03;6.90;79.80
66373;SHT30;53168;51.146;17.120;2024-02-21T00:06:38;6.89;79.82
66373;SHT30;53168;51.146;17.120;2024-02-21T00:09:12;6.90;79.84
66373;SHT30;53168;51.146;17.120;2024-02-21T00:11:46;6.90;79.83
66373;SHT30;53168;51.146;17.120;2024-02-21T00:14:20;6.90;79.86
66373;SHT30;53168;51.146;17.120;2024-02-21T00:16:54;6.91;79.87
66373;SHT30;53168;51.146;17.120;2024-02-21T00:19:28;6.92;79.82
66373;SHT30;53168;51.146;17.120;2024-02-21T00:22:03;6.93;79.80
66373;SHT30;53168;51.146;17.120;2024-02-21T00:24:38;6.93;79.77
66373;SHT30;53168;51.146;17.120;2024-02-21T00:27:12;6.93;79.77
66373;SHT30;53168;51.146;17.120;2024-02-21T00:29:46;6.93;79.77
66373;SHT30;53168;51.146;17.120;2024-02-21T00:32:21;6.93;79.75
66373;SHT30;53168;51.146;17.120;2024-02-21T00:34:57;6.94;79.77
66373;SHT30;53168;51.146;17.120;2024-02-21T00:37:32;6.95;79.75
66373;SHT30;53168;51.146;17.120;2024-02-21T00:40:08;6.95;79.70
66373;SHT30;53168;51.146;17.120;2024-02-21T00:42:43;6.96;79.71
66373;SHT30;53168;51.146;17.120;2024-02-21T00:45:17;6.97;79.71
66373;SHT30;53168;51.146;17.120;2024-02-21T00:47:51;6.98;79.69
66373;SHT30;53168;51.146;17.120;2024-02-21T00:50:28;6.99;79.65
66373;SHT30;53168;51.146;17.120;2024-02-21T00:53:04;7.00;79.62
66373;SHT30;53168;51.146;17.120;2024-02-21T00:55:39;7.01;79.60
66373;SHT30;53168;51.146;17.120;2024-02-21T00:58:15;7.01;79.58
66373;SHT30;53168;51.146;17.120;2024-02-21T01:00:49;7.01;79.54
66373;SHT30;53168;51.146;17.120;2024-02-21T01:03:24;7.01;79.53
66373;SHT30;53168;51.146;17.120;2024-02-21T01:05:59;7.00;79.53
66373;SHT30;53168;51.146;17.120;2024-02-21T01:08:33;6.98;79.60
66373;SHT30;53168;51.146;17.120;2024-02-21T01:11:07;6.97;79.60
66373;SHT30;53168;51.146;17.120;2024-02-21T01:13:42;6.93;79.62
66373;SHT30;53168;51.146;17.120;2024-02-21T01:16:16;6.91;79.70
66373;SHT30;53168;51.146;17.120;2024-02-21T01:18:51;6.91;79.68
66373;SHT30;53168;51.146;17.120;2024-02-21T01:21:26;6.91;79.70
66373;SHT30;53168;51.146;17.120;2024-02-21T01:24:01;6.93;79.71
66373;SHT30;53168;51.146;17.120;2024-02-21T01:26:37;6.95;79.70
66373;SHT30;53168;51.146;17.120;2024-02-21T01:29:12;6.96;79.70
66373;SHT30;53168;51.146;17.120;2024-02-21T01:31:47;6.99;79.70
66373;SHT30;53168;51.146;17.120;2024-02-21T01:34:22;6.99;79.72
66373;SHT30;53168;51.146;17.120;2024-02-21T01:37:04;7.01;79.79
66373;SHT30;53168;51.146;17.120;2024-02-21T01:39:39;7.03;79.83
66373;SHT30;53168;51.146;17.120;2024-02-21T01:42:14;7.03;79.89
66373;SHT30;53168;51.146;17.120;2024-02-21T01:44:49;7.03;80.02
66373;SHT30;53168;51.146;17.120;2024-02-21T01:47:24;7.01;80.15
66373;SHT30;53168;51.146;17.120;2024-02-21T01:50:01;7.00;80.29
66373;SHT30;53168;51.146;17.120;2024-02-21T01:52:37;6.96;80.46
66373;SHT30;53168;51.146;17.120;2024-02-21T01:55:14;6.94;80.58
66373;SHT30;53168;51.146;17.120;2024-02-21T01:57:50;6.92;80.70
66373;SHT30;53168;51.146;17.120;2024-02-21T02:00:25;6.89;80.76
66373;SHT30;53168;51.146;17.120;2024-02-21T02:03:01;6.88;80.87
66373;SHT30;53168;51.146;17.120;2024-02-21T02:05:49;6.87;80.95
66373;SHT30;53168;51.146;17.120;2024-02-21T02:12:07;6.84;81.08
66373;SHT30;53168;51.146;17.120;2024-02-21T02:14:42;6.83;81.10
66373;SHT30;53168;51.146;17.120;2024-02-21T02:17:17;6.82;81.11
66373;SHT30;53168;51.146;17.120;2024-02-21T02:19:51;6.80;81.20
66373;SHT30;53168;51.146;17.120;2024-02-21T02:22:30;6.77;81.26
66373;SHT30;53168;51.146;17.120;2024-02-21T02:25:10;6.76;81.30
66373;SHT30;53168;51.146;17.120;2024-02-21T02:28:08;6.76;81.38
66373;SHT30;53168;51.146;17.120;2024-02-21T02:30:43;6.76;81.40
66373;SHT30;53168;51.146;17.120;2024-02-21T02:33:18;6.76;81.39
66373;SHT30;53168;51.146;17.120;2024-02-21T02:35:53;6.76;81.37
66373;SHT30;53168;51.146;17.120;2024-02-21T02:38:30;6.75;81.41
66373;SHT30;53168;51.146;17.120;2024-02-21T02:41:04;6.74;81.49
66373;SHT30;53168;51.146;17.120;2024-02-21T02:43:40;6.72;81.57
66373;SHT30;53168;51.146;17.120;2024-02-21T02:46:14;6.70;81.51
66373;SHT30;53168;51.146;17.120;2024-02-21T02:48:49;6.68;81.53
66373;SHT30;53168;51.146;17.120;2024-02-21T02:51:23;6.67;81.54
66373;SHT30;53168;51.146;17.120;2024-02-21T02:53:58;6.64;81.58
66373;SHT30;53168;51.146;17.120;2024-02-21T02:56:33;6.62;81.60
66373;SHT30;53168;51.146;17.120;2024-02-21T02:59:08;6.60;81.61
66373;SHT30;53168;51.146;17.120;2024-02-21T03:01:42;6.57;81.62
66373;SHT30;53168;51.146;17.120;2024-02-21T03:04:17;6.56;81.66
66373;SHT30;53168;51.146;17.120;2024-02-21T03:06:51;6.54;81.68
66373;SHT30;53168;51.146;17.120;2024-02-21T03:09:26;6.53;81.69
66373;SHT30;53168;51.146;17.120;2024-02-21T03:12:01;6.52;81.69
66373;SHT30;53168;51.146;17.120;2024-02-21T03:17:02;6.54;81.69
66373;SHT30;53168;51.146;17.120;2024-02-21T03:19:37;6.56;81.62
66373;SHT30;53168;51.146;17.120;2024-02-21T03:22:12;6.56;81.60
66373;SHT30;53168;51.146;17.120;2024-02-21T03:24:47;6.55;81.60
66373;SHT30;53168;51.146;17.120;2024-02-21T03:27:22;6.54;81.58
66373;SHT30;53168;51.146;17.120;2024-02-21T03:29:57;6.55;81.60
66373;SHT30;53168;51.146;17.120;2024-02-21T03:32:31;6.55;81.58
66373;SHT30;53168;51.146;17.120;2024-02-21T03:35:07;6.57;81.57
66373;SHT30;53168;51.146;17.120;2024-02-21T03:37:46;6.60;81.58
66373;SHT30;53168;51.146;17.120;2024-02-21T03:40:20;6.62;81.56
66373;SHT30;53168;51.146;17.120;2024-02-21T03:42:55;6.64;81.57
66373;SHT30;53168;51.146;17.120;2024-02-21T03:45:30;6.65;81.55
66373;SHT30;53168;51.146;17.120;2024-02-21T03:48:06;6.66;81.54
66373;SHT30;53168;51.146;17.120;2024-02-21T03:50:41;6.68;81.51
66373;SHT30;53168;51.146;17.120;2024-02-21T03:53:16;6.69;81.50
66373;SHT30;53168;51.146;17.120;2024-02-21T03:55:50;6.69;81.50
66373;SHT30;53168;51.146;17.120;2024-02-21T03:58:24;6.68;81.50
66373;SHT30;53168;51.146;17.120;2024-02-21T04:01:01;6.67;81.50
66373;SHT30;53168;51.146;17.120;2024-02-21T04:03:37;6.68;81.47
66373;SHT30;53168;51.146;17.120;2024-02-21T04:06:11;6.69;81.41
66373;SHT30;53168;51.146;17.120;2024-02-21T04:08:47;6.70;81.40
66373;SHT30;53168;51.146;17.120;2024-02-21T04:11:21;6.71;81.39
66373;SHT30;53168;51.146;17.120;2024-02-21T04:13:56;6.72;81.34
66373;SHT30;53168;51.146;17.120;2024-02-21T04:16:30;6.73;81.32
66373;SHT30;53168;51.146;17.120;2024-02-21T04:19:05;6.72;81.30
66373;SHT30;53168;51.146;17.120;2024-02-21T04:34:43;6.80;81.00
66373;SHT30;53168;51.146;17.120;2024-02-21T04:37:18;6.80;81.00
66373;SHT30;53168;51.146;17.120;2024-02-21T04:39:53;6.78;81.03
66373;SHT30;53168;51.146;17.120;2024-02-21T04:42:28;6.76;81.07
66373;SHT30;53168;51.146;17.120;2024-02-21T04:45:03;6.73;81.07
66373;SHT30;53168;51.146;17.120;2024-02-21T04:47:39;6.70;81.09
66373;SHT30;53168;51.146;17.120;2024-02-21T04:50:16;6.68;81.10
66373;SHT30;53168;51.146;17.120;2024-02-21T04:52:50;6.65;81.10
66373;SHT30;53168;51.146;17.120;2024-02-21T04:55:25;6.65;81.10
66373;SHT30;53168;51.146;17.120;2024-02-21T04:58:00;6.65;81.06
66373;SHT30;53168;51.146;17.120;2024-02-21T05:00:35;6.65;81.04
66373;SHT30;53168;51.146;17.120;2024-02-21T05:03:10;6.65;81.03
66373;SHT30;53168;51.146;17.120;2024-02-21T05:05:54;6.65;81.00
66373;SHT30;53168;51.146;17.120;2024-02-21T05:08:29;6.65;81.00
66373;SHT30;53168;51.146;17.120;2024-02-21T05:11:10;6.65;81.01
66373;SHT30;53168;51.146;17.120;2024-02-21T05:13:46;6.65;81.08
66373;SHT30;53168;51.146;17.120;2024-02-21T05:16:20;6.64;81.08
66373;SHT30;53168;51.146;17.120;2024-02-21T05:18:55;6.64;81.07
66373;SHT30;53168;51.146;17.120;2024-02-21T05:21:30;6.63;81.02
66373;SHT30;53168;51.146;17.120;2024-02-21T05:24:05;6.61;81.01
66373;SHT30;53168;51.146;17.120;2024-02-21T05:26:40;6.61;81.00
66373;SHT30;53168;51.146;17.120;2024-02-21T05:29:14;6.61;81.00
66373;SHT30;53168;51.146;17.120;2024-02-21T05:31:58;6.60;81.00
66373;SHT30;53168;51.146;17.120;2024-02-21T05:34:34;6.61;81.00
66373;SHT30;53168;51.146;17.120;2024-02-21T05:37:09;6.61;80.98
66373;SHT30;53168;51.146;17.120;2024-02-21T05:39:43;6.61;81.00
66373;SHT30;53168;51.146;17.120;2024-02-21T05:42:18;6.58;81.00
66373;SHT30;53168;51.146;17.120;2024-02-21T05:44:53;6.57;81.00
66373;SHT30;53168;51.146;17.120;2024-02-21T05:47:27;6.57;80.99
66373;SHT30;53168;51.146;17.120;2024-02-21T05:50:02;6.56;80.97
66373;SHT30;53168;51.146;17.120;2024-02-21T05:52:37;6.56;80.90
66373;SHT30;53168;51.146;17.120;2024-02-21T05:55:12;6.57;80.88
66373;SHT30;53168;51.146;17.120;2024-02-21T05:57:48;6.58;80.89
66373;SHT30;53168;51.146;17.120;2024-02-21T06:00:26;6.59;80.83
66373;SHT30;53168;51.146;17.120;2024-02-21T06:03:01;6.60;80.80
66373;SHT30;53168;51.146;17.120;2024-02-21T06:05:39;6.62;80.80
66373;SHT30;53168;51.146;17.120;2024-02-21T06:08:16;6.64;80.76
66373;SHT30;53168;51.146;17.120;2024-02-21T06:10:52;6.66;80.77
66373;SHT30;53168;51.146;17.120;2024-02-21T06:13:26;6.66;80.70
66373;SHT30;53168;51.146;17.120;2024-02-21T06:16:01;6.70;80.72
66373;SHT30;53168;51.146;17.120;2024-02-21T06:18:37;6.72;80.69
66373;SHT30;53168;51.146;17.120;2024-02-21T06:21:12;6.75;80.59
66373;SHT30;53168;51.146;17.120;2024-02-21T06:23:48;6.79;80.57
66373;SHT30;53168;51.146;17.120;2024-02-21T06:26:22;6.84;80.45
66373;SHT30;53168;51.146;17.120;2024-02-21T06:28:57;6.92;80.26
66373;SHT30;53168;51.146;17.120;2024-02-21T06:31:34;7.00;80.08
66373;SHT30;53168;51.146;17.120;2024-02-21T06:34:09;7.05;79.91
66373;SHT30;53168;51.146;17.120;2024-02-21T06:36:46;7.11;79.69
66373;SHT30;53168;51.146;17.120;2024-02-21T06:39:21;7.18;79.51
66373;SHT30;53168;51.146;17.120;2024-02-21T06:41:56;7.25;79.23
66373;SHT30;53168;51.146;17.120;2024-02-21T06:44:34;7.32;78.92
66373;SHT30;53168;51.146;17.120;2024-02-21T06:47:12;7.38;78.84
66373;SHT30;53168;51.146;17.120;2024-02-21T06:49:50;7.41;78.90
66373;SHT30;53168;51.146;17.120;2024-02-21T06:52:24;7.45;78.72
66373;SHT30;53168;51.146;17.120;2024-02-21T06:54:59;7.52;78.45
66373;SHT30;53168;51.146;17.120;2024-02-21T06:57:34;7.58;78.35
66373;SHT30;53168;51.146;17.120;2024-02-21T07:00:11;7.64;78.19
66373;SHT30;53168;51.146;17.120;2024-02-21T07:02:49;7.70;77.93
66373;SHT30;53168;51.146;17.120;2024-02-21T07:05:24;7.76;77.79
66373;SHT30;53168;51.146;17.120;2024-02-21T07:07:58;7.82;77.59
66373;SHT30;53168;51.146;17.120;2024-02-21T07:10:35;7.88;77.59
66373;SHT30;53168;51.146;17.120;2024-02-21T07:13:10;7.95;77.44
66373;SHT30;53168;51.146;17.120;2024-02-21T07:15:45;8.00;77.32
66373;SHT30;53168;51.146;17.120;2024-02-21T07:18:19;8.06;77.06
66373;SHT30;53168;51.146;17.120;2024-02-21T07:20:58;8.13;76.90
66373;SHT30;53168;51.146;17.120;2024-02-21T07:23:33;8.16;76.87
66373;SHT30;53168;51.146;17.120;2024-02-21T07:26:07;8.19;76.76
66373;SHT30;53168;51.146;17.120;2024-02-21T07:28:42;8.22;76.87
66373;SHT30;53168;51.146;17.120;2024-02-21T07:31:17;8.20;76.90
66373;SHT30;53168;51.146;17.120;2024-02-21T07:33:54;8.18;76.95
66373;SHT30;53168;51.146;17.120;2024-02-21T07:36:30;8.16;76.90
66373;SHT30;53168;51.146;17.120;2024-02-21T07:39:05;8.16;76.85
66373;SHT30;53168;51.146;17.120;2024-02-21T07:41:40;8.14;76.93
66373;SHT30;53168;51.146;17.120;2024-02-21T07:44:16;8.15;77.10
66373;SHT30;53168;51.146;17.120;2024-02-21T07:46:51;8.17;77.21
66373;SHT30;53168;51.146;17.120;2024-02-21T07:49:26;8.15;77.22
66373;SHT30;53168;51.146;17.120;2024-02-21T07:52:03;8.16;77.37
66373;SHT30;53168;51.146;17.120;2024-02-21T07:54:38;8.16;77.47
66373;SHT30;53168;51.146;17.120;2024-02-21T07:57:13;8.17;77.60
66373;SHT30;53168;51.146;17.120;2024-02-21T07:59:48;8.17;77.69
66373;SHT30;53168;51.146;17.120;2024-02-21T08:02:22;8.17;77.77
66373;SHT30;53168;51.146;17.120;2024-02-21T08:04:59;8.18;77.69
66373;SHT30;53168;51.146;17.120;2024-02-21T08:07:35;8.19;77.86
66373;SHT30;53168;51.146;17.120;2024-02-21T08:10:10;8.18;77.88
66373;SHT30;53168;51.146;17.120;2024-02-21T08:12:46;8.18;78.05
66373;SHT30;53168;51.146;17.120;2024-02-21T08:15:21;8.20;78.10
66373;SHT30;53168;51.146;17.120;2024-02-21T08:17:59;8.22;78.17
66373;SHT30;53168;51.146;17.120;2024-02-21T08:20:35;8.23;78.08
66373;SHT30;53168;51.146;17.120;2024-02-21T08:23:10;8.25;78.21
66373;SHT30;53168;51.146;17.120;2024-02-21T08:25:45;8.27;78.14
66373;SHT30;53168;51.146;17.120;2024-02-21T08:28:20;8.27;78.22
66373;SHT30;53168;51.146;17.120;2024-02-21T08:30:54;8.27;78.28
66373;SHT30;53168;51.146;17.120;2024-02-21T08:33:29;8.28;78.25
66373;SHT30;53168;51.146;17.120;2024-02-21T08:36:05;8.29;78.27
66373;SHT30;53168;51.146;17.120;2024-02-21T08:38:40;8.33;78.30
66373;SHT30;53168;51.146;17.120;2024-02-21T08:41:15;8.40;78.32
66373;SHT30;53168;51.146;17.120;2024-02-21T08:43:50;8.46;78.22
66373;SHT30;53168;51.146;17.120;2024-02-21T08:46:26;8.50;78.16
66373;SHT30;53168;51.146;17.120;2024-02-21T08:49:02;8.50;78.10
66373;SHT30;53168;51.146;17.120;2024-02-21T08:51:36;8.52;78.14
66373;SHT30;53168;51.146;17.120;2024-02-21T08:54:11;8.60;78.17
66373;SHT30;53168;51.146;17.120;2024-02-21T08:56:46;8.67;77.94
66373;SHT30;53168;51.146;17.120;2024-02-21T08:59:21;8.73;77.98
66373;SHT30;53168;51.146;17.120;2024-02-21T09:01:55;8.83;78.03
66373;SHT30;53168;51.146;17.120;2024-02-21T09:04:30;8.89;78.02
66373;SHT30;53168;51.146;17.120;2024-02-21T09:07:05;8.92;77.95
66373;SHT30;53168;51.146;17.120;2024-02-21T09:09:40;8.92;77.87
66373;SHT30;53168;51.146;17.120;2024-02-21T09:12:15;8.92;77.99
66373;SHT30;53168;51.146;17.120;2024-02-21T09:14:49;8.94;78.09
66373;SHT30;53168;51.146;17.120;2024-02-21T09:17:24;8.91;78.01
66373;SHT30;53168;51.146;17.120;2024-02-21T09:22:30;8.88;77.85
66373;SHT30;53168;51.146;17.120;2024-02-21T09:25:03;8.85;77.96
66373;SHT30;53168;51.146;17.120;2024-02-21T09:27:35;8.83;78.07
66373;SHT30;53168;51.146;17.120;2024-02-21T09:30:09;8.85;78.26
66373;SHT30;53168;51.146;17.120;2024-02-21T09:32:42;8.86;78.13
66373;SHT30;53168;51.146;17.120;2024-02-21T09:35:13;8.85;78.19
66373;SHT30;53168;51.146;17.120;2024-02-21T09:37:44;8.84;78.21
66373;SHT30;53168;51.146;17.120;2024-02-21T09:40:16;8.82;78.24
66373;SHT30;53168;51.146;17.120;2024-02-21T09:42:48;8.85;78.28
66373;SHT30;53168;51.146;17.120;2024-02-21T09:45:25;8.89;78.17
66373;SHT30;53168;51.146;17.120;2024-02-21T09:48:15;8.99;78.27
66373;SHT30;53168;51.146;17.120;2024-02-21T09:51:00;9.19;78.16
66373;SHT30;53168;51.146;17.120;2024-02-21T09:53:33;9.36;78.08
66373;SHT30;53168;51.146;17.120;2024-02-21T09:56:08;9.47;78.00
66373;SHT30;53168;51.146;17.120;2024-02-21T09:58:43;9.50;77.82
66373;SHT30;53168;51.146;17.120;2024-02-21T10:01:16;9.48;77.77
66373;SHT30;53168;51.146;17.120;2024-02-21T10:04:02;9.41;77.78
66373;SHT30;53168;51.146;17.120;2024-02-21T10:06:34;9.36;77.78
66373;SHT30;53168;51.146;17.120;2024-02-21T10:09:07;9.30;77.78
66373;SHT30;53168;51.146;17.120;2024-02-21T10:11:38;9.23;77.62
66373;SHT30;53168;51.146;17.120;2024-02-21T10:14:09;9.16;77.70
66373;SHT30;53168;51.146;17.120;2024-02-21T10:16:40;9.12;77.72
66373;SHT30;53168;51.146;17.120;2024-02-21T10:19:18;9.08;77.70
66373;SHT30;53168;51.146;17.120;2024-02-21T10:22:07;9.03;77.72
66373;SHT30;53168;51.146;17.120;2024-02-21T10:24:39;9.00;77.72
66373;SHT30;53168;51.146;17.120;2024-02-21T10:27:11;8.98;77.79
66373;SHT30;53168;51.146;17.120;2024-02-21T10:29:43;8.98;77.79
66373;SHT30;53168;51.146;17.120;2024-02-21T10:32:20;8.95;77.70
66373;SHT30;53168;51.146;17.120;2024-02-21T10:35:02;8.96;77.74
66373;SHT30;53168;51.146;17.120;2024-02-21T10:50:27;8.95;77.41
66373;SHT30;53168;51.146;17.120;2024-02-21T10:53:14;8.95;77.38
66373;SHT30;53168;51.146;17.120;2024-02-21T10:56:02;8.97;77.41
66373;SHT30;53168;51.146;17.120;2024-02-21T10:58:47;8.98;77.50
66373;SHT30;53168;51.146;17.120;2024-02-21T11:05:59;9.07;77.40
66373;SHT30;53168;51.146;17.120;2024-02-21T11:08:36;9.09;77.32
66373;SHT30;53168;51.146;17.120;2024-02-21T11:11:13;9.09;77.38
66373;SHT30;53168;51.146;17.120;2024-02-21T11:14:09;9.08;77.25
66373;SHT30;53168;51.146;17.120;2024-02-21T11:16:50;9.07;77.15
66373;SHT30;53168;51.146;17.120;2024-02-21T11:19:26;9.09;77.28
66373;SHT30;53168;51.146;17.120;2024-02-21T11:22:03;9.11;77.21
66373;SHT30;53168;51.146;17.120;2024-02-21T11:24:49;9.14;77.21
66373;SHT30;53168;51.146;17.120;2024-02-21T11:27:25;9.16;77.10
66373;SHT30;53168;51.146;17.120;2024-02-21T11:30:00;9.18;77.01
66373;SHT30;53168;51.146;17.120;2024-02-21T11:32:36;9.26;76.93
66373;SHT30;53168;51.146;17.120;2024-02-21T11:35:21;9.36;76.76
66373;SHT30;53168;51.146;17.120;2024-02-21T11:37:55;9.47;76.49
66373;SHT30;53168;51.146;17.120;2024-02-21T11:40:41;9.59;76.30
66373;SHT30;53168;51.146;17.120;2024-02-21T11:43:17;9.76;76.41
66373;SHT30;53168;51.146;17.120;2024-02-21T11:46:00;9.91;76.30
66373;SHT30;53168;51.146;17.120;2024-02-21T11:48:35;9.97;76.01
66373;SHT30;53168;51.146;17.120;2024-02-21T11:51:11;9.94;75.88
66373;SHT30;53168;51.146;17.120;2024-02-21T11:53:54;9.89;75.92
66373;SHT30;53168;51.146;17.120;2024-02-21T11:56:32;9.86;76.03
66373;SHT30;53168;51.146;17.120;2024-02-21T11:59:10;9.80;75.85
66373;SHT30;53168;51.146;17.120;2024-02-21T12:01:44;9.77;75.83
66373;SHT30;53168;51.146;17.120;2024-02-21T12:04:20;9.77;75.90
66373;SHT30;53168;51.146;17.120;2024-02-21T12:06:56;9.83;75.89
66373;SHT30;53168;51.146;17.120;2024-02-21T12:09:31;9.89;75.81
66373;SHT30;53168;51.146;17.120;2024-02-21T12:12:08;9.90;75.83
66373;SHT30;53168;51.146;17.120;2024-02-21T12:14:42;9.93;75.87
66373;SHT30;53168;51.146;17.120;2024-02-21T12:17:17;9.94;75.60
66373;SHT30;53168;51.146;17.120;2024-02-21T12:32:57;10.08;75.18
66373;SHT30;53168;51.146;17.120;2024-02-21T12:35:49;10.11;75.31
66373;SHT30;53168;51.146;17.120;2024-02-21T12:38:28;10.14;75.42
66373;SHT30;53168;51.146;17.120;2024-02-21T12:41:04;10.14;75.19
66373;SHT30;53168;51.146;17.120;2024-02-21T12:43:41;10.13;75.15
66373;SHT30;53168;51.146;17.120;2024-02-21T12:46:16;10.12;75.04
66373;SHT30;53168;51.146;17.120;2024-02-21T12:48:51;10.10;75.02
66373;SHT30;53168;51.146;17.120;2024-02-21T12:51:26;10.08;75.04
66373;SHT30;53168;51.146;17.120;2024-02-21T12:54:01;10.07;75.05
66373;SHT30;53168;51.146;17.120;2024-02-21T12:56:35;10.08;75.09
66373;SHT30;53168;51.146;17.120;2024-02-21T12:59:11;10.05;75.02
66373;SHT30;53168;51.146;17.120;2024-02-21T13:01:45;10.04;74.91
66373;SHT30;53168;51.146;17.120;2024-02-21T13:04:20;10.01;75.03
66373;SHT30;53168;51.146;17.120;2024-02-21T13:06:56;9.99;74.87
66373;SHT30;53168;51.146;17.120;2024-02-21T13:09:30;9.96;74.87
66373;SHT30;53168;51.146;17.120;2024-02-21T13:12:06;9.95;74.77
66373;SHT30;53168;51.146;17.120;2024-02-21T13:14:42;9.93;74.68
66373;SHT30;53168;51.146;17.120;2024-02-21T13:17:17;9.92;74.53
66373;SHT30;53168;51.146;17.120;2024-02-21T13:19:53;9.93;74.63
66373;SHT30;53168;51.146;17.120;2024-02-21T13:22:28;9.96;74.69
66373;SHT30;53168;51.146;17.120;2024-02-21T13:25:05;10.01;74.44
66373;SHT30;53168;51.146;17.120;2024-02-21T13:27:50;10.06;74.13
66373;SHT30;53168;51.146;17.120;2024-02-21T13:30:25;10.11;73.29
66373;SHT30;53168;51.146;17.120;2024-02-21T13:33:00;10.14;73.20
66373;SHT30;53168;51.146;17.120;2024-02-21T13:35:35;10.18;72.99
66373;SHT30;53168;51.146;17.120;2024-02-21T13:38:10;10.20;73.02
66373;SHT30;53168;51.146;17.120;2024-02-21T13:40:45;10.23;72.98
66373;SHT30;53168;51.146;17.120;2024-02-21T13:43:22;10.25;72.81
66373;SHT30;53168;51.146;17.120;2024-02-21T13:45:59;10.27;72.48
66373;SHT30;53168;51.146;17.120;2024-02-21T13:48:39;10.25;72.49
66373;SHT30;53168;51.146;17.120;2024-02-21T13:51:29;10.22;72.59
66373;SHT30;53168;51.146;17.120;2024-02-21T13:54:04;10.21;72.66
66373;SHT30;53168;51.146;17.120;2024-02-21T13:56:41;10.23;72.75
66373;SHT30;53168;51.146;17.120;2024-02-21T13:59:17;10.26;72.72
66373;SHT30;53168;51.146;17.120;2024-02-21T14:01:52;10.29;72.69
66373;SHT30;53168;51.146;17.120;2024-02-21T14:04:27;10.32;72.78
66373;SHT30;53168;51.146;17.120;2024-02-21T14:07:03;10.37;72.59
66373;SHT30;53168;51.146;17.120;2024-02-21T14:09:39;10.39;72.48
66373;SHT30;53168;51.146;17.120;2024-02-21T14:12:15;10.41;72.50
66373;SHT30;53168;51.146;17.120;2024-02-21T14:14:52;10.44;72.25
66373;SHT30;53168;51.146;17.120;2024-02-21T14:17:28;10.47;72.32
66373;SHT30;53168;51.146;17.120;2024-02-21T14:20:04;10.50;72.15
66373;SHT30;53168;51.146;17.120;2024-02-21T14:22:39;10.51;72.05
66373;SHT30;53168;51.146;17.120;2024-02-21T14:25:14;10.51;72.04
66373;SHT30;53168;51.146;17.120;2024-02-21T14:27:49;10.54;72.19
66373;SHT30;53168;51.146;17.120;2024-02-21T14:30:24;10.54;72.05
66373;SHT30;53168;51.146;17.120;2024-02-21T14:32:59;10.55;71.89
66373;SHT30;53168;51.146;17.120;2024-02-21T14:35:34;10.53;71.73
66373;SHT30;53168;51.146;17.120;2024-02-21T14:38:09;10.53;71.63
66373;SHT30;53168;51.146;17.120;2024-02-21T14:40:44;10.53;71.56
66373;SHT30;53168;51.146;17.120;2024-02-21T14:43:22;10.53;71.67
66373;SHT30;53168;51.146;17.120;2024-02-21T14:46:07;10.54;71.39
66373;SHT30;53168;51.146;17.120;2024-02-21T14:48:43;10.54;71.41
66373;SHT30;53168;51.146;17.120;2024-02-21T14:51:18;10.53;71.47
66373;SHT30;53168;51.146;17.120;2024-02-21T14:54:19;10.52;71.42
66373;SHT30;53168;51.146;17.120;2024-02-21T14:56:54;10.52;71.51
66373;SHT30;53168;51.146;17.120;2024-02-21T14:59:41;10.51;71.37
66373;SHT30;53168;51.146;17.120;2024-02-21T15:02:30;10.50;71.39
66373;SHT30;53168;51.146;17.120;2024-02-21T15:05:07;10.50;71.63
66373;SHT30;53168;51.146;17.120;2024-02-21T15:07:44;10.48;71.36
66373;SHT30;53168;51.146;17.120;2024-02-21T15:10:19;10.46;71.27
66373;SHT30;53168;51.146;17.120;2024-02-21T15:12:53;10.44;71.17
66373;SHT30;53168;51.146;17.120;2024-02-21T15:15:29;10.40;71.10
66373;SHT30;53168;51.146;17.120;2024-02-21T15:18:05;10.38;70.96
66373;SHT30;53168;51.146;17.120;2024-02-21T15:20:39;10.37;70.87
66373;SHT30;53168;51.146;17.120;2024-02-21T15:23:15;10.34;70.98
66373;SHT30;53168;51.146;17.120;2024-02-21T15:25:52;10.33;71.08
66373;SHT30;53168;51.146;17.120;2024-02-21T15:28:27;10.30;70.94
66373;SHT30;53168;51.146;17.120;2024-02-21T15:31:02;10.29;70.93
66373;SHT30;53168;51.146;17.120;2024-02-21T15:33:48;10.27;70.89
66373;SHT30;53168;51.146;17.120;2024-02-21T15:36:25;10.26;71.02
66373;SHT30;53168;51.146;17.120;2024-02-21T15:39:05;10.25;71.22
66373;SHT30;53168;51.146;17.120;2024-02-21T15:41:43;10.23;71.38
66373;SHT30;53168;51.146;17.120;2024-02-21T15:44:18;10.21;71.42
66373;SHT30;53168;51.146;17.120;2024-02-21T15:46:54;10.19;71.41
66373;SHT30;53168;51.146;17.120;2024-02-21T15:49:31;10.16;71.55
66373;SHT30;53168;51.146;17.120;2024-02-21T15:52:10;10.13;71.59
66373;SHT30;53168;51.146;17.120;2024-02-21T15:54:48;10.10;71.65
66373;SHT30;53168;51.146;17.120;2024-02-21T15:57:23;10.08;71.71
66373;SHT30;53168;51.146;17.120;2024-02-21T15:59:59;10.04;71.79
66373;SHT30;53168;51.146;17.120;2024-02-21T16:02:40;10.03;71.80
66373;SHT30;53168;51.146;17.120;2024-02-21T16:05:15;10.00;71.84
66373;SHT30;53168;51.146;17.120;2024-02-21T16:07:50;9.98;71.84
66373;SHT30;53168;51.146;17.120;2024-02-21T16:10:34;9.95;71.90
66373;SHT30;53168;51.146;17.120;2024-02-21T16:13:09;9.91;71.90
66373;SHT30;53168;51.146;17.120;2024-02-21T16:15:44;9.88;71.97
66373;SHT30;53168;51.146;17.120;2024-02-21T16:18:20;9.85;72.00
66373;SHT30;53168;51.146;17.120;2024-02-21T16:20:55;9.83;72.08
66373;SHT30;53168;51.146;17.120;2024-02-21T16:23:29;9.81;72.14
66373;SHT30;53168;51.146;17.120;2024-02-21T16:26:04;9.80;72.25
66373;SHT30;53168;51.146;17.120;2024-02-21T16:28:40;9.79;72.32
66373;SHT30;53168;51.146;17.120;2024-02-21T16:31:20;9.78;72.29
66373;SHT30;53168;51.146;17.120;2024-02-21T16:33:56;9.75;72.36
66373;SHT30;53168;51.146;17.120;2024-02-21T16:36:31;9.72;72.40
66373;SHT30;53168;51.146;17.120;2024-02-21T16:39:06;9.71;72.40
66373;SHT30;53168;51.146;17.120;2024-02-21T16:41:44;9.68;72.43
66373;SHT30;53168;51.146;17.120;2024-02-21T16:44:22;9.64;72.50
66373;SHT30;53168;51.146;17.120;2024-02-21T16:47:05;9.61;72.53
66373;SHT30;53168;51.146;17.120;2024-02-21T16:49:40;9.57;72.59
66373;SHT30;53168;51.146;17.120;2024-02-21T16:52:15;9.53;72.58
66373;SHT30;53168;51.146;17.120;2024-02-21T16:54:51;9.48;72.60
66373;SHT30;53168;51.146;17.120;2024-02-21T16:57:28;9.43;72.60
66373;SHT30;53168;51.146;17.120;2024-02-21T17:00:06;9.40;72.66
66373;SHT30;53168;51.146;17.120;2024-02-21T17:02:44;9.34;72.69
66373;SHT30;53168;51.146;17.120;2024-02-21T17:05:29;9.26;72.72
66373;SHT30;53168;51.146;17.120;2024-02-21T17:08:06;9.18;72.81
66373;SHT30;53168;51.146;17.120;2024-02-21T17:10:41;9.11;72.90
66373;SHT30;53168;51.146;17.120;2024-02-21T17:13:16;9.01;72.96
66373;SHT30;53168;51.146;17.120;2024-02-21T17:15:53;8.91;73.09